METAR Data
IDs: Format: Raw Decoded Include TAF

Data at: 1009 UTC 18 Jan 2022

KWVI 180953Z AUTO 35004KT 10SM CLR 08/08 A3010 RMK AO2 SLP192 T00830083

KSNS 180953Z AUTO 34005KT 8SM OVC013 13/11 A3009 RMK AO2 SLP199 T01330111 TSNO

KMRY 181004Z AUTO 00000KT 10SM OVC010 12/10 A3010 RMK AO2 T01220100

KSJC 180953Z AUTO 00000KT 9SM CLR 08/06 A3010 RMK AO2 SLP192 T00830061

KSFO 180956Z 31006KT 10SM FEW009 FEW120 10/08 A3009 RMK AO2 SLP191 T01000083

KHAF 180955Z AUTO 00000KT 8SM CLR 06/06 A3011 RMK AO2